sensor_id;sensor_type;location;lat;lon;timestamp;pressure;altitude;pressure_sealevel;temperature;humidity
33404;BME280;19751;40.274;18.268;2024-02-14T00:01:48;101040.59;;;11.00;100.00
33404;BME280;19751;40.274;18.268;2024-02-14T00:04:14;101043.47;;;10.98;100.00
33404;BME280;19751;40.274;18.268;2024-02-14T00:06:39;101043.66;;;10.97;100.00
33404;BME280;19751;40.274;18.268;2024-02-14T00:09:05;101039.94;;;10.98;100.00
33404;BME280;19751;40.274;18.268;2024-02-14T00:11:32;101046.09;;;10.91;100.00
33404;BME280;19751;40.274;18.268;2024-02-14T00:13:58;101034.91;;;10.80;100.00
33404;BME280;19751;40.274;18.268;2024-02-14T00:16:25;101043.16;;;10.63;100.00
33404;BME280;19751;40.274;18.268;2024-02-14T00:18:50;101047.94;;;10.53;100.00
33404;BME280;19751;40.274;18.268;2024-02-14T00:21:16;101043.28;;;10.47;100.00
33404;BME280;19751;40.274;18.268;2024-02-14T00:23:42;101042.59;;;10.30;100.00
33404;BME280;19751;40.274;18.268;2024-02-14T00:26:07;101042.44;;;10.24;100.00
33404;BME280;19751;40.274;18.268;2024-02-14T00:28:33;101048.34;;;10.19;100.00
33404;BME280;19751;40.274;18.268;2024-02-14T00:30:58;101050.22;;;10.18;100.00
33404;BME280;19751;40.274;18.268;2024-02-14T00:33:24;101046.00;;;10.16;100.00
33404;BME280;19751;40.274;18.268;2024-02-14T00:35:49;101058.63;;;10.15;100.00
33404;BME280;19751;40.274;18.268;2024-02-14T00:38:15;101057.16;;;10.13;100.00
33404;BME280;19751;40.274;18.268;2024-02-14T00:40:41;101058.81;;;10.14;100.00
33404;BME280;19751;40.274;18.268;2024-02-14T00:43:06;101066.75;;;10.07;100.00
33404;BME280;19751;40.274;18.268;2024-02-14T00:45:32;101061.75;;;10.04;100.00
33404;BME280;19751;40.274;18.268;2024-02-14T00:47:57;101059.22;;;10.03;100.00
33404;BME280;19751;40.274;18.268;2024-02-14T00:50:23;101052.84;;;10.04;100.00
33404;BME280;19751;40.274;18.268;2024-02-14T00:52:48;101054.16;;;10.08;100.00
33404;BME280;19751;40.274;18.268;2024-02-14T00:55:14;101067.97;;;10.05;100.00
33404;BME280;19751;40.274;18.268;2024-02-14T00:57:39;101069.94;;;10.11;100.00
33404;BME280;19751;40.274;18.268;2024-02-14T01:00:06;101062.88;;;10.10;100.00
33404;BME280;19751;40.274;18.268;2024-02-14T01:02:32;101063.06;;;10.08;100.00
33404;BME280;19751;40.274;18.268;2024-02-14T01:04:57;101055.53;;;10.04;100.00
33404;BME280;19751;40.274;18.268;2024-02-14T01:07:23;101057.56;;;10.02;100.00
33404;BME280;19751;40.274;18.268;2024-02-14T01:09:48;101064.97;;;10.00;100.00
33404;BME280;19751;40.274;18.268;2024-02-14T01:12:15;101063.13;;;10.00;100.00
33404;BME280;19751;40.274;18.268;2024-02-14T01:14:41;101068.63;;;10.07;100.00
33404;BME280;19751;40.274;18.268;2024-02-14T01:17:07;101074.25;;;10.20;100.00
33404;BME280;19751;40.274;18.268;2024-02-14T01:19:33;101063.00;;;10.25;100.00
33404;BME280;19751;40.274;18.268;2024-02-14T01:21:59;101070.88;;;10.26;100.00
33404;BME280;19751;40.274;18.268;2024-02-14T01:24:24;101071.03;;;10.33;100.00
33404;BME280;19751;40.274;18.268;2024-02-14T01:26:54;101070.47;;;10.37;100.00
33404;BME280;19751;40.274;18.268;2024-02-14T01:29:20;101068.25;;;10.41;100.00
33404;BME280;19751;40.274;18.268;2024-02-14T01:31:46;101071.59;;;10.43;100.00
33404;BME280;19751;40.274;18.268;2024-02-14T01:34:11;101067.72;;;10.45;100.00
33404;BME280;19751;40.274;18.268;2024-02-14T01:36:37;101065.97;;;10.53;100.00
33404;BME280;19751;40.274;18.268;2024-02-14T01:39:04;101066.56;;;10.63;100.00
33404;BME280;19751;40.274;18.268;2024-02-14T01:41:33;101072.72;;;10.72;100.00
33404;BME280;19751;40.274;18.268;2024-02-14T01:43:58;101064.56;;;10.80;100.00
33404;BME280;19751;40.274;18.268;2024-02-14T01:46:25;101068.19;;;10.87;100.00
33404;BME280;19751;40.274;18.268;2024-02-14T01:48:50;101068.28;;;10.93;100.00
33404;BME280;19751;40.274;18.268;2024-02-14T01:51:18;101064.88;;;11.00;100.00
33404;BME280;19751;40.274;18.268;2024-02-14T01:53:45;101067.84;;;11.05;100.00
33404;BME280;19751;40.274;18.268;2024-02-14T01:56:12;101070.19;;;11.08;100.00
33404;BME280;19751;40.274;18.268;2024-02-14T01:58:38;101068.94;;;11.10;100.00
33404;BME280;19751;40.274;18.268;2024-02-14T02:01:04;101069.63;;;11.12;100.00
33404;BME280;19751;40.274;18.268;2024-02-14T02:03:30;101053.25;;;11.14;100.00
33404;BME280;19751;40.274;18.268;2024-02-14T02:06:01;101066.72;;;11.14;100.00
33404;BME280;19751;40.274;18.268;2024-02-14T02:08:26;101072.78;;;11.16;100.00
33404;BME280;19751;40.274;18.268;2024-02-14T02:10:52;101065.34;;;11.18;100.00
33404;BME280;19751;40.274;18.268;2024-02-14T02:13:17;101065.81;;;11.22;100.00
33404;BME280;19751;40.274;18.268;2024-02-14T02:15:43;101066.63;;;11.22;100.00
33404;BME280;19751;40.274;18.268;2024-02-14T02:18:12;101072.50;;;11.26;100.00
33404;BME280;19751;40.274;18.268;2024-02-14T02:20:38;101064.59;;;11.24;100.00
33404;BME280;19751;40.274;18.268;2024-02-14T02:23:04;101083.66;;;11.23;100.00
33404;BME280;19751;40.274;18.268;2024-02-14T02:25:30;101076.03;;;11.26;100.00
33404;BME280;19751;40.274;18.268;2024-02-14T02:27:55;101078.72;;;11.26;100.00
33404;BME280;19751;40.274;18.268;2024-02-14T02:30:25;101081.22;;;11.28;100.00
33404;BME280;19751;40.274;18.268;2024-02-14T02:32:51;101072.97;;;11.29;100.00
33404;BME280;19751;40.274;18.268;2024-02-14T02:35:17;101085.41;;;11.30;100.00
33404;BME280;19751;40.274;18.268;2024-02-14T02:37:45;101078.53;;;11.28;100.00
33404;BME280;19751;40.274;18.268;2024-02-14T02:40:13;101078.38;;;11.29;100.00
33404;BME280;19751;40.274;18.268;2024-02-14T02:42:39;101077.34;;;11.30;100.00
33404;BME280;19751;40.274;18.268;2024-02-14T02:45:05;101078.84;;;11.33;100.00
33404;BME280;19751;40.274;18.268;2024-02-14T02:47:34;101087.75;;;11.33;100.00
33404;BME280;19751;40.274;18.268;2024-02-14T02:49:59;101104.56;;;11.35;100.00
33404;BME280;19751;40.274;18.268;2024-02-14T02:52:27;101089.22;;;11.36;100.00
33404;BME280;19751;40.274;18.268;2024-02-14T02:54:53;101094.63;;;11.36;100.00
33404;BME280;19751;40.274;18.268;2024-02-14T02:57:19;101101.03;;;11.35;100.00
33404;BME280;19751;40.274;18.268;2024-02-14T02:59:44;101103.28;;;11.31;100.00
33404;BME280;19751;40.274;18.268;2024-02-14T03:02:12;101098.28;;;11.28;100.00
33404;BME280;19751;40.274;18.268;2024-02-14T03:04:38;101102.63;;;11.29;100.00
33404;BME280;19751;40.274;18.268;2024-02-14T03:07:04;101103.47;;;11.30;100.00
33404;BME280;19751;40.274;18.268;2024-02-14T03:09:33;101104.28;;;11.30;100.00
33404;BME280;19751;40.274;18.268;2024-02-14T03:11:58;101104.28;;;11.30;100.00
33404;BME280;19751;40.274;18.268;2024-02-14T03:14:24;101106.16;;;11.30;100.00
33404;BME280;19751;40.274;18.268;2024-02-14T03:16:49;101108.84;;;11.30;100.00
33404;BME280;19751;40.274;18.268;2024-02-14T03:19:16;101112.28;;;11.24;100.00
33404;BME280;19751;40.274;18.268;2024-02-14T03:21:41;101115.16;;;11.22;100.00
33404;BME280;19751;40.274;18.268;2024-02-14T03:24:08;101119.38;;;11.25;100.00
33404;BME280;19751;40.274;18.268;2024-02-14T03:26:34;101116.19;;;11.21;100.00
33404;BME280;19751;40.274;18.268;2024-02-14T03:29:01;101122.78;;;11.18;100.00
33404;BME280;19751;40.274;18.268;2024-02-14T03:31:27;101123.53;;;11.12;100.00
33404;BME280;19751;40.274;18.268;2024-02-14T03:33:53;101129.09;;;11.11;100.00
33404;BME280;19751;40.274;18.268;2024-02-14T03:36:19;101132.63;;;11.11;100.00
33404;BME280;19751;40.274;18.268;2024-02-14T03:38:45;101131.34;;;11.07;100.00
33404;BME280;19751;40.274;18.268;2024-02-14T03:41:12;101134.63;;;10.94;100.00
33404;BME280;19751;40.274;18.268;2024-02-14T03:43:38;101144.50;;;10.87;100.00
33404;BME280;19751;40.274;18.268;2024-02-14T03:46:04;101140.28;;;10.85;100.00
33404;BME280;19751;40.274;18.268;2024-02-14T03:48:30;101146.69;;;10.84;100.00
33404;BME280;19751;40.274;18.268;2024-02-14T03:50:56;101147.06;;;10.81;100.00
33404;BME280;19751;40.274;18.268;2024-02-14T03:53:22;101158.19;;;10.78;100.00
33404;BME280;19751;40.274;18.268;2024-02-14T03:55:48;101155.50;;;10.78;100.00
33404;BME280;19751;40.274;18.268;2024-02-14T03:58:15;101154.56;;;10.70;100.00
33404;BME280;19751;40.274;18.268;2024-02-14T04:00:42;101159.13;;;10.70;100.00
33404;BME280;19751;40.274;18.268;2024-02-14T04:03:12;101158.44;;;10.68;100.00
33404;BME280;19751;40.274;18.268;2024-02-14T04:05:38;101168.19;;;10.69;100.00
33404;BME280;19751;40.274;18.268;2024-02-14T04:08:04;101166.53;;;10.68;100.00
33404;BME280;19751;40.274;18.268;2024-02-14T04:10:29;101165.16;;;10.72;100.00
33404;BME280;19751;40.274;18.268;2024-02-14T04:12:55;101171.22;;;10.74;100.00
33404;BME280;19751;40.274;18.268;2024-02-14T04:15:21;101172.69;;;10.77;100.00
33404;BME280;19751;40.274;18.268;2024-02-14T04:17:46;101170.81;;;10.77;100.00
33404;BME280;19751;40.274;18.268;2024-02-14T04:20:12;101165.44;;;10.77;100.00
33404;BME280;19751;40.274;18.268;2024-02-14T04:22:37;101176.13;;;10.70;100.00
33404;BME280;19751;40.274;18.268;2024-02-14T04:25:03;101171.91;;;10.68;100.00
33404;BME280;19751;40.274;18.268;2024-02-14T04:27:29;101176.28;;;10.69;100.00
33404;BME280;19751;40.274;18.268;2024-02-14T04:29:54;101189.75;;;10.69;100.00
33404;BME280;19751;40.274;18.268;2024-02-14T04:32:20;101182.22;;;10.64;100.00
33404;BME280;19751;40.274;18.268;2024-02-14T04:34:45;101192.50;;;10.61;100.00
33404;BME280;19751;40.274;18.268;2024-02-14T04:37:11;101198.13;;;10.51;100.00
33404;BME280;19751;40.274;18.268;2024-02-14T04:39:39;101200.69;;;10.44;100.00
33404;BME280;19751;40.274;18.268;2024-02-14T04:42:05;101201.06;;;10.41;100.00
33404;BME280;19751;40.274;18.268;2024-02-14T04:44:31;101199.88;;;10.36;100.00
33404;BME280;19751;40.274;18.268;2024-02-14T04:46:57;101196.69;;;10.32;100.00
33404;BME280;19751;40.274;18.268;2024-02-14T04:49:29;101203.25;;;10.38;100.00
33404;BME280;19751;40.274;18.268;2024-02-14T04:51:55;101199.00;;;10.43;100.00
33404;BME280;19751;40.274;18.268;2024-02-14T04:54:20;101197.97;;;10.44;100.00
33404;BME280;19751;40.274;18.268;2024-02-14T04:56:46;101199.84;;;10.44;100.00
33404;BME280;19751;40.274;18.268;2024-02-14T04:59:12;101202.19;;;10.47;100.00
33404;BME280;19751;40.274;18.268;2024-02-14T05:01:37;101203.69;;;10.50;100.00
33404;BME280;19751;40.274;18.268;2024-02-14T05:04:04;101206.41;;;10.50;100.00
33404;BME280;19751;40.274;18.268;2024-02-14T05:06:30;101210.22;;;10.55;100.00
33404;BME280;19751;40.274;18.268;2024-02-14T05:08:56;101207.19;;;10.58;100.00
33404;BME280;19751;40.274;18.268;2024-02-14T05:11:21;101215.25;;;10.58;100.00
33404;BME280;19751;40.274;18.268;2024-02-14T05:13:47;101224.00;;;10.60;100.00
33404;BME280;19751;40.274;18.268;2024-02-14T05:16:13;101221.97;;;10.62;100.00
33404;BME280;19751;40.274;18.268;2024-02-14T05:18:38;101222.47;;;10.66;100.00
33404;BME280;19751;40.274;18.268;2024-02-14T05:21:07;101223.94;;;10.68;100.00
33404;BME280;19751;40.274;18.268;2024-02-14T05:23:34;101222.75;;;10.71;100.00
33404;BME280;19751;40.274;18.268;2024-02-14T05:26:00;101223.78;;;10.70;100.00
33404;BME280;19751;40.274;18.268;2024-02-14T05:28:28;101221.09;;;10.70;100.00
33404;BME280;19751;40.274;18.268;2024-02-14T05:30:54;101220.91;;;10.72;100.00
33404;BME280;19751;40.274;18.268;2024-02-14T05:33:19;101231.66;;;10.72;100.00
33404;BME280;19751;40.274;18.268;2024-02-14T05:35:51;101233.81;;;10.76;100.00
33404;BME280;19751;40.274;18.268;2024-02-14T05:38:17;101234.84;;;10.75;100.00
33404;BME280;19751;40.274;18.268;2024-02-14T05:40:47;101239.22;;;10.76;100.00
33404;BME280;19751;40.274;18.268;2024-02-14T05:43:12;101240.06;;;10.77;100.00
33404;BME280;19751;40.274;18.268;2024-02-14T05:45:38;101246.31;;;10.69;100.00
33404;BME280;19751;40.274;18.268;2024-02-14T05:48:04;101258.94;;;10.45;100.00
33404;BME280;19751;40.274;18.268;2024-02-14T05:50:29;101251.28;;;10.26;100.00
33404;BME280;19751;40.274;18.268;2024-02-14T05:52:55;101259.38;;;10.10;100.00
33404;BME280;19751;40.274;18.268;2024-02-14T05:55:22;101262.09;;;10.02;100.00
33404;BME280;19751;40.274;18.268;2024-02-14T05:57:48;101271.84;;;10.03;100.00
33404;BME280;19751;40.274;18.268;2024-02-14T06:00:14;101268.47;;;10.09;100.00
33404;BME280;19751;40.274;18.268;2024-02-14T06:02:39;101273.84;;;10.17;100.00
33404;BME280;19751;40.274;18.268;2024-02-14T06:05:06;101269.59;;;10.23;100.00
33404;BME280;19751;40.274;18.268;2024-02-14T06:07:36;101263.38;;;10.30;100.00
33404;BME280;19751;40.274;18.268;2024-02-14T06:10:01;101274.94;;;10.39;100.00
33404;BME280;19751;40.274;18.268;2024-02-14T06:12:27;101283.47;;;10.51;100.00
33404;BME280;19751;40.274;18.268;2024-02-14T06:14:52;101280.41;;;10.62;100.00
33404;BME280;19751;40.274;18.268;2024-02-14T06:17:18;101284.88;;;10.69;100.00
33404;BME280;19751;40.274;18.268;2024-02-14T06:19:43;101289.38;;;10.77;100.00
33404;BME280;19751;40.274;18.268;2024-02-14T06:22:09;101282.47;;;10.83;100.00
33404;BME280;19751;40.274;18.268;2024-02-14T06:24:36;101290.00;;;10.87;100.00
33404;BME280;19751;40.274;18.268;2024-02-14T06:27:01;101293.34;;;10.89;100.00
33404;BME280;19751;40.274;18.268;2024-02-14T06:29:27;101295.50;;;10.94;100.00
33404;BME280;19751;40.274;18.268;2024-02-14T06:31:52;101292.47;;;10.97;100.00
33404;BME280;19751;40.274;18.268;2024-02-14T06:34:18;101293.16;;;10.99;100.00
33404;BME280;19751;40.274;18.268;2024-02-14T06:36:46;101305.25;;;11.03;100.00
33404;BME280;19751;40.274;18.268;2024-02-14T06:39:12;101304.88;;;11.06;100.00
33404;BME280;19751;40.274;18.268;2024-02-14T06:41:37;101308.06;;;11.10;100.00
33404;BME280;19751;40.274;18.268;2024-02-14T06:44:06;101314.28;;;11.10;100.00
33404;BME280;19751;40.274;18.268;2024-02-14T06:46:32;101306.19;;;11.10;100.00
33404;BME280;19751;40.274;18.268;2024-02-14T06:48:57;101312.75;;;11.16;100.00
33404;BME280;19751;40.274;18.268;2024-02-14T06:51:23;101309.66;;;11.19;100.00
33404;BME280;19751;40.274;18.268;2024-02-14T06:53:49;101313.53;;;11.25;100.00
33404;BME280;19751;40.274;18.268;2024-02-14T06:56:15;101316.16;;;11.33;100.00
33404;BME280;19751;40.274;18.268;2024-02-14T06:58:41;101312.09;;;11.37;100.00
33404;BME280;19751;40.274;18.268;2024-02-14T07:01:07;101313.56;;;11.39;100.00
33404;BME280;19751;40.274;18.268;2024-02-14T07:03:33;101324.63;;;11.44;100.00
33404;BME280;19751;40.274;18.268;2024-02-14T07:05:59;101323.09;;;11.50;100.00
33404;BME280;19751;40.274;18.268;2024-02-14T07:08:25;101328.78;;;11.55;100.00
33404;BME280;19751;40.274;18.268;2024-02-14T07:10:54;101314.75;;;11.60;100.00
33404;BME280;19751;40.274;18.268;2024-02-14T07:13:20;101324.44;;;11.69;100.00
33404;BME280;19751;40.274;18.268;2024-02-14T07:15:46;101323.91;;;11.74;100.00
33404;BME280;19751;40.274;18.268;2024-02-14T07:18:11;101333.84;;;11.73;100.00
33404;BME280;19751;40.274;18.268;2024-02-14T07:20:37;101333.69;;;11.75;100.00
33404;BME280;19751;40.274;18.268;2024-02-14T07:23:02;101328.44;;;11.73;100.00
33404;BME280;19751;40.274;18.268;2024-02-14T07:25:29;101329.94;;;11.76;98.12
33404;BME280;19751;40.274;18.268;2024-02-14T07:27:54;101343.94;;;11.79;97.18
33404;BME280;19751;40.274;18.268;2024-02-14T07:30:20;101340.72;;;11.84;96.60
33404;BME280;19751;40.274;18.268;2024-02-14T07:32:45;101338.28;;;11.89;96.57
33404;BME280;19751;40.274;18.268;2024-02-14T07:35:11;101343.31;;;11.92;95.74
33404;BME280;19751;40.274;18.268;2024-02-14T07:37:39;101339.25;;;11.96;96.37
33404;BME280;19751;40.274;18.268;2024-02-14T07:40:05;101349.47;;;12.01;95.79
33404;BME280;19751;40.274;18.268;2024-02-14T07:42:31;101343.72;;;12.04;94.72
33404;BME280;19751;40.274;18.268;2024-02-14T07:44:57;101341.50;;;12.07;94.98
33404;BME280;19751;40.274;18.268;2024-02-14T07:47:22;101349.03;;;12.12;93.02
33404;BME280;19751;40.274;18.268;2024-02-14T07:49:48;101346.97;;;12.14;90.87
33404;BME280;19751;40.274;18.268;2024-02-14T07:52:13;101342.72;;;12.19;90.63
33404;BME280;19751;40.274;18.268;2024-02-14T07:54:39;101337.75;;;12.23;88.48
33404;BME280;19751;40.274;18.268;2024-02-14T07:57:04;101343.84;;;12.25;87.24
33404;BME280;19751;40.274;18.268;2024-02-14T07:59:30;101345.50;;;12.26;87.17
33404;BME280;19751;40.274;18.268;2024-02-14T08:01:56;101344.31;;;12.29;83.67
33404;BME280;19751;40.274;18.268;2024-02-14T08:04:23;101374.03;;;12.29;80.78
33404;BME280;19751;40.274;18.268;2024-02-14T08:06:48;101345.97;;;12.30;76.34
33404;BME280;19751;40.274;18.268;2024-02-14T08:09:14;101351.19;;;12.31;75.26
33404;BME280;19751;40.274;18.268;2024-02-14T08:11:40;101352.88;;;12.32;73.61
33404;BME280;19751;40.274;18.268;2024-02-14T08:14:06;101348.94;;;12.35;74.84
33404;BME280;19751;40.274;18.268;2024-02-14T08:16:31;101337.78;;;12.38;75.05
33404;BME280;19751;40.274;18.268;2024-02-14T08:18:57;101358.81;;;12.42;76.29
33404;BME280;19751;40.274;18.268;2024-02-14T08:21:27;101344.13;;;12.45;69.45
33404;BME280;19751;40.274;18.268;2024-02-14T08:23:55;101359.94;;;12.48;67.44
33404;BME280;19751;40.274;18.268;2024-02-14T08:26:21;101353.69;;;12.48;64.83
33404;BME280;19751;40.274;18.268;2024-02-14T08:28:51;101357.06;;;12.50;65.74
33404;BME280;19751;40.274;18.268;2024-02-14T08:31:16;101349.59;;;12.52;68.22
33404;BME280;19751;40.274;18.268;2024-02-14T08:33:42;101350.63;;;12.51;67.10
33404;BME280;19751;40.274;18.268;2024-02-14T08:36:08;101346.88;;;12.52;67.07
33404;BME280;19751;40.274;18.268;2024-02-14T08:38:34;101366.47;;;12.54;65.77
33404;BME280;19751;40.274;18.268;2024-02-14T08:41:03;101341.31;;;12.53;65.04
33404;BME280;19751;40.274;18.268;2024-02-14T08:43:29;101342.78;;;12.56;65.09
33404;BME280;19751;40.274;18.268;2024-02-14T08:45:55;101342.78;;;12.56;62.19
33404;BME280;19751;40.274;18.268;2024-02-14T08:48:21;101338.06;;;12.58;63.96
33404;BME280;19751;40.274;18.268;2024-02-14T08:50:47;101344.38;;;12.65;63.27
33404;BME280;19751;40.274;18.268;2024-02-14T08:53:13;101339.63;;;12.67;61.35
33404;BME280;19751;40.274;18.268;2024-02-14T08:55:42;101343.16;;;12.67;61.62
33404;BME280;19751;40.274;18.268;2024-02-14T08:58:07;101349.03;;;12.71;63.45
33404;BME280;19751;40.274;18.268;2024-02-14T09:00:35;101348.66;;;12.74;63.57
33404;BME280;19751;40.274;18.268;2024-02-14T09:03:02;101363.84;;;12.75;59.46
33404;BME280;19751;40.274;18.268;2024-02-14T09:05:28;101362.34;;;12.73;59.20
33404;BME280;19751;40.274;18.268;2024-02-14T09:07:54;101353.88;;;12.76;61.70
33404;BME280;19751;40.274;18.268;2024-02-14T09:10:19;101350.97;;;12.77;63.71
33404;BME280;19751;40.274;18.268;2024-02-14T09:12:45;101341.84;;;12.78;65.25
33404;BME280;19751;40.274;18.268;2024-02-14T09:15:11;101348.91;;;12.79;66.19
33404;BME280;19751;40.274;18.268;2024-02-14T09:17:37;101349.75;;;12.80;65.63
33404;BME280;19751;40.274;18.268;2024-02-14T09:20:05;101343.31;;;12.81;65.43
33404;BME280;19751;40.274;18.268;2024-02-14T09:22:35;101348.34;;;12.84;64.59
33404;BME280;19751;40.274;18.268;2024-02-14T09:25:01;101353.38;;;12.87;65.96
33404;BME280;19751;40.274;18.268;2024-02-14T09:27:30;101353.19;;;12.88;66.41
33404;BME280;19751;40.274;18.268;2024-02-14T09:29:55;101365.28;;;12.92;68.84
33404;BME280;19751;40.274;18.268;2024-02-14T09:32:21;101349.75;;;12.94;65.90
33404;BME280;19751;40.274;18.268;2024-02-14T09:34:46;101366.97;;;12.93;66.06
33404;BME280;19751;40.274;18.268;2024-02-14T09:37:12;101364.94;;;12.96;66.07
33404;BME280;19751;40.274;18.268;2024-02-14T09:39:38;101365.75;;;12.96;65.68
33404;BME280;19751;40.274;18.268;2024-02-14T09:42:08;101360.16;;;12.98;65.52
33404;BME280;19751;40.274;18.268;2024-02-14T09:44:35;101363.31;;;13.01;66.32
33404;BME280;19751;40.274;18.268;2024-02-14T09:47:03;101356.03;;;13.02;65.71
33404;BME280;19751;40.274;18.268;2024-02-14T09:49:31;101364.44;;;13.07;66.74
33404;BME280;19751;40.274;18.268;2024-02-14T09:51:57;101370.75;;;13.14;65.80
33404;BME280;19751;40.274;18.268;2024-02-14T09:54:24;101362.47;;;13.15;64.72
33404;BME280;19751;40.274;18.268;2024-02-14T09:56:51;101353.50;;;13.15;64.93
33404;BME280;19751;40.274;18.268;2024-02-14T09:59:22;101355.63;;;13.19;67.43
33404;BME280;19751;40.274;18.268;2024-02-14T10:01:47;101367.09;;;13.22;65.23
33404;BME280;19751;40.274;18.268;2024-02-14T10:04:18;101360.00;;;13.21;64.10
33404;BME280;19751;40.274;18.268;2024-02-14T10:06:45;101372.50;;;13.22;64.92
33404;BME280;19751;40.274;18.268;2024-02-14T10:09:10;101377.06;;;13.21;67.27
33404;BME280;19751;40.274;18.268;2024-02-14T10:11:37;101360.50;;;13.24;68.89
33404;BME280;19751;40.274;18.268;2024-02-14T10:14:04;101361.34;;;13.25;71.09
33404;BME280;19751;40.274;18.268;2024-02-14T10:16:35;101394.44;;;13.27;68.49
33404;BME280;19751;40.274;18.268;2024-02-14T10:19:01;101366.75;;;13.25;66.23
33404;BME280;19751;40.274;18.268;2024-02-14T10:21:28;101375.06;;;13.23;65.72
33404;BME280;19751;40.274;18.268;2024-02-14T10:23:53;101366.94;;;13.23;66.52
33404;BME280;19751;40.274;18.268;2024-02-14T10:26:22;101362.16;;;13.25;67.46
33404;BME280;19751;40.274;18.268;2024-02-14T10:28:48;101361.13;;;13.26;64.18
33404;BME280;19751;40.274;18.268;2024-02-14T10:31:15;101380.47;;;13.23;64.19
33404;BME280;19751;40.274;18.268;2024-02-14T10:33:41;101364.59;;;13.20;63.81
33404;BME280;19751;40.274;18.268;2024-02-14T10:36:07;101379.06;;;13.12;63.28
33404;BME280;19751;40.274;18.268;2024-02-14T10:38:34;101372.72;;;13.05;63.68
33404;BME280;19751;40.274;18.268;2024-02-14T10:41:01;101369.19;;;13.05;63.77
33404;BME280;19751;40.274;18.268;2024-02-14T10:43:27;101346.91;;;13.03;64.04
33404;BME280;19751;40.274;18.268;2024-02-14T10:45:56;101357.91;;;13.01;63.14
33404;BME280;19751;40.274;18.268;2024-02-14T10:48:24;101363.97;;;13.03;62.86
33404;BME280;19751;40.274;18.268;2024-02-14T10:50:53;101375.63;;;13.04;61.81
33404;BME280;19751;40.274;18.268;2024-02-14T10:53:20;101366.94;;;13.08;61.25
33404;BME280;19751;40.274;18.268;2024-02-14T10:55:49;101355.75;;;13.11;61.08
33404;BME280;19751;40.274;18.268;2024-02-14T10:58:18;101354.72;;;13.12;60.26
33404;BME280;19751;40.274;18.268;2024-02-14T11:00:44;101355.56;;;13.13;60.52
33404;BME280;19751;40.274;18.268;2024-02-14T11:03:10;101366.00;;;13.16;59.51
33404;BME280;19751;40.274;18.268;2024-02-14T11:05:45;101357.88;;;13.16;58.00
33404;BME280;19751;40.274;18.268;2024-02-14T11:08:22;101376.63;;;13.17;58.73
33404;BME280;19751;40.274;18.268;2024-02-14T11:10:55;101351.22;;;13.18;57.36
33404;BME280;19751;40.274;18.268;2024-02-14T11:13:28;101355.63;;;13.19;57.54
33404;BME280;19751;40.274;18.268;2024-02-14T11:15:54;101350.03;;;13.21;57.53
33404;BME280;19751;40.274;18.268;2024-02-14T11:18:27;101365.91;;;13.24;57.88
33404;BME280;19751;40.274;18.268;2024-02-14T11:20:55;101358.88;;;13.30;58.33
33404;BME280;19751;40.274;18.268;2024-02-14T11:23:23;101357.41;;;13.27;57.48
33404;BME280;19751;40.274;18.268;2024-02-14T11:25:48;101352.84;;;13.28;58.44
33404;BME280;19751;40.274;18.268;2024-02-14T11:28:16;101355.81;;;13.33;58.88
33404;BME280;19751;40.274;18.268;2024-02-14T11:30:43;101355.44;;;13.36;59.10
33404;BME280;19751;40.274;18.268;2024-02-14T11:35:46;101353.59;;;13.43;60.16
33404;BME280;19751;40.274;18.268;2024-02-14T11:38:12;101353.22;;;13.46;59.29
33404;BME280;19751;40.274;18.268;2024-02-14T11:40:38;101344.06;;;13.47;58.61
33404;BME280;19751;40.274;18.268;2024-02-14T11:43:05;101357.13;;;13.43;59.13
33404;BME280;19751;40.274;18.268;2024-02-14T11:45:35;101342.78;;;13.43;59.16
33404;BME280;19751;40.274;18.268;2024-02-14T11:48:04;101347.56;;;13.41;59.64
33404;BME280;19751;40.274;18.268;2024-02-14T11:50:30;101352.75;;;13.42;59.98
33404;BME280;19751;40.274;18.268;2024-02-14T11:52:57;101344.06;;;13.47;61.91
33404;BME280;19751;40.274;18.268;2024-02-14T11:55:28;101335.56;;;13.50;63.15
33404;BME280;19751;40.274;18.268;2024-02-14T11:57:54;101344.97;;;13.54;63.47
33404;BME280;19751;40.274;18.268;2024-02-14T12:00:20;101340.97;;;13.50;60.30
33404;BME280;19751;40.274;18.268;2024-02-14T12:02:45;101338.28;;;13.50;61.46
33404;BME280;19751;40.274;18.268;2024-02-14T12:05:11;101329.13;;;13.51;61.56
33404;BME280;19751;40.274;18.268;2024-02-14T12:07:39;101332.03;;;13.50;60.77
33404;BME280;19751;40.274;18.268;2024-02-14T12:10:05;101344.53;;;13.51;62.85
33404;BME280;19751;40.274;18.268;2024-02-14T12:12:31;101340.78;;;13.52;61.76
33404;BME280;19751;40.274;18.268;2024-02-14T12:14:57;101351.81;;;13.50;61.44
33404;BME280;19751;40.274;18.268;2024-02-14T12:17:24;101345.94;;;13.47;62.38
33404;BME280;19751;40.274;18.268;2024-02-14T12:19:49;101339.91;;;13.45;62.70
33404;BME280;19751;40.274;18.268;2024-02-14T12:22:16;101328.41;;;13.42;64.92
33404;BME280;19751;40.274;18.268;2024-02-14T12:24:45;101329.44;;;13.41;66.53
33404;BME280;19751;40.274;18.268;2024-02-14T12:27:12;101329.91;;;13.45;66.33
33404;BME280;19751;40.274;18.268;2024-02-14T12:29:38;101332.59;;;13.45;66.54
33404;BME280;19751;40.274;18.268;2024-02-14T12:32:06;101335.69;;;13.42;66.71